createdAt,value
2022-11-17T00:00:46.652Z,84.40
2022-11-17T00:03:15.952Z,84.67
2022-11-17T00:05:47.818Z,84.73
2022-11-17T00:08:17.851Z,84.80
2022-11-17T00:10:45.800Z,84.88
2022-11-17T00:13:34.094Z,84.94
2022-11-17T00:16:03.882Z,85.23
2022-11-17T00:18:50.187Z,85.11
2022-11-17T00:21:24.100Z,85.28
2022-11-17T00:23:56.253Z,85.29
2022-11-17T00:26:26.499Z,85.18
2022-11-17T00:28:55.717Z,85.25
2022-11-17T00:31:57.330Z,85.42
2022-11-17T00:34:25.811Z,85.54
2022-11-17T00:36:55.697Z,85.57
2022-11-17T00:39:26.544Z,85.65
2022-11-17T00:41:54.560Z,85.71
2022-11-17T00:44:25.338Z,85.57
2022-11-17T00:46:55.091Z,85.62
2022-11-17T00:49:26.939Z,85.58
2022-11-17T00:51:56.137Z,85.68
2022-11-17T00:54:26.256Z,85.66
2022-11-17T00:56:54.253Z,85.82
2022-11-17T00:59:22.251Z,85.84
2022-11-17T01:01:55.159Z,85.96
2022-11-17T01:04:23.972Z,85.82
2022-11-17T01:06:52.391Z,85.66
2022-11-17T01:09:23.728Z,85.83
2022-11-17T01:11:55.065Z,85.93
2022-11-17T01:14:25.205Z,85.92
2022-11-17T01:16:54.779Z,86.08
2022-11-17T01:19:24.961Z,86.07
2022-11-17T01:21:53.953Z,86.15
2022-11-17T01:24:22.458Z,86.17
2022-11-17T01:26:55.332Z,86.11
2022-11-17T01:29:23.758Z,86.12
2022-11-17T01:31:54.151Z,86.21
2022-11-17T01:34:23.233Z,86.21
2022-11-17T01:37:09.008Z,86.20
2022-11-17T01:39:37.620Z,86.36
2022-11-17T01:42:14.765Z,86.32
2022-11-17T01:45:03.046Z,86.17
2022-11-17T01:47:36.165Z,86.20
2022-11-17T01:50:09.455Z,86.10
2022-11-17T01:52:39.188Z,86.06
2022-11-17T01:55:09.199Z,86.11
2022-11-17T01:57:40.918Z,86.05
2022-11-17T02:00:11.346Z,85.98
2022-11-17T02:02:41.260Z,86.01
2022-11-17T02:05:20.039Z,85.98
2022-11-17T02:07:49.282Z,86.01
2022-11-17T02:10:19.034Z,86.02
2022-11-17T02:12:49.548Z,86.00
2022-11-17T02:15:18.692Z,85.97
2022-11-17T02:17:46.936Z,85.98
2022-11-17T02:20:16.780Z,85.91
2022-11-17T02:23:13.706Z,85.92
2022-11-17T02:26:08.456Z,85.75
2022-11-17T02:28:43.325Z,85.80
2022-11-17T02:31:19.374Z,85.70
2022-11-17T02:33:56.128Z,85.78
2022-11-17T02:36:37.352Z,85.80
2022-11-17T02:39:11.804Z,85.60
2022-11-17T02:41:47.909Z,85.48
2022-11-17T02:44:23.107Z,85.37
2022-11-17T02:46:56.156Z,85.45
2022-11-17T02:49:28.343Z,85.46
2022-11-17T02:52:01.621Z,85.39
2022-11-17T02:54:34.695Z,85.36
2022-11-17T02:57:03.025Z,85.28
2022-11-17T02:59:37.628Z,85.08
2022-11-17T03:02:23.493Z,85.03
2022-11-17T03:05:06.258Z,84.96
2022-11-17T03:07:46.977Z,84.87
2022-11-17T03:10:18.931Z,84.78
2022-11-17T03:12:50.242Z,84.83
2022-11-17T03:15:33.637Z,84.91
2022-11-17T03:18:10.080Z,84.89
2022-11-17T03:20:42.646Z,84.81
2022-11-17T03:23:15.742Z,84.87
2022-11-17T03:25:48.526Z,84.88
2022-11-17T03:28:17.524Z,84.91
2022-11-17T03:30:51.692Z,84.97
2022-11-17T03:33:23.423Z,84.86
2022-11-17T03:35:56.761Z,84.91
2022-11-17T03:38:29.042Z,84.90
2022-11-17T03:40:58.086Z,84.89
2022-11-17T03:43:32.041Z,84.96
2022-11-17T03:46:07.724Z,84.89
2022-11-17T03:48:37.989Z,84.88
2022-11-17T03:51:09.555Z,84.90
2022-11-17T03:53:38.971Z,84.90
2022-11-17T03:56:16.858Z,85.00
2022-11-17T03:58:50.992Z,85.07
2022-11-17T04:01:21.108Z,85.12
2022-11-17T04:03:49.795Z,85.05
2022-11-17T04:06:21.398Z,85.13
2022-11-17T04:08:49.919Z,85.14
2022-11-17T04:11:36.835Z,85.20
2022-11-17T04:14:24.252Z,85.29
2022-11-17T04:16:56.616Z,85.33
2022-11-17T04:19:24.883Z,85.33
2022-11-17T04:21:53.113Z,85.38
2022-11-17T04:24:21.649Z,85.47
2022-11-17T04:27:09.901Z,85.42
2022-11-17T04:29:39.473Z,85.55
2022-11-17T04:32:08.928Z,85.51
2022-11-17T04:34:46.142Z,85.60
2022-11-17T04:37:18.179Z,85.68
2022-11-17T04:39:55.843Z,85.69
2022-11-17T04:42:24.528Z,85.73
2022-11-17T04:44:55.714Z,85.82
2022-11-17T04:47:25.351Z,85.81
2022-11-17T04:49:54.615Z,85.82
2022-11-17T04:52:26.908Z,85.81
2022-11-17T04:54:57.670Z,85.78
2022-11-17T04:57:26.237Z,85.80
2022-11-17T04:59:54.153Z,85.85
2022-11-17T05:02:22.498Z,85.92
2022-11-17T05:04:59.551Z,86.02
2022-11-17T05:07:28.424Z,86.07
2022-11-17T05:09:57.719Z,86.06
2022-11-17T05:12:43.799Z,86.07
2022-11-17T05:15:32.677Z,86.17
2022-11-17T05:18:00.018Z,86.23
2022-11-17T05:20:29.505Z,86.30
2022-11-17T05:23:15.808Z,86.26
2022-11-17T05:25:49.365Z,86.28
2022-11-17T05:28:17.347Z,86.36
2022-11-17T05:30:45.779Z,86.38
2022-11-17T05:33:15.133Z,86.38
2022-11-17T05:35:44.839Z,86.41
2022-11-17T05:38:14.707Z,86.42
2022-11-17T05:40:43.157Z,86.44
2022-11-17T05:43:11.330Z,86.48
2022-11-17T05:45:40.390Z,86.49
2022-11-17T05:48:08.509Z,86.50
2022-11-17T05:50:39.390Z,86.52
2022-11-17T05:53:12.779Z,86.58
2022-11-17T05:55:41.111Z,86.67
2022-11-17T05:58:12.389Z,86.63
2022-11-17T06:00:42.294Z,86.65
2022-11-17T06:03:16.628Z,86.61
2022-11-17T06:05:45.841Z,86.64
2022-11-17T06:08:19.593Z,86.68
2022-11-17T06:10:48.443Z,86.69
2022-11-17T06:13:29.551Z,86.65
2022-11-17T06:16:01.044Z,86.63
2022-11-17T06:18:31.569Z,86.53
2022-11-17T06:20:59.581Z,86.56
2022-11-17T06:23:31.977Z,88.46
2022-11-17T06:26:01.439Z,88.76
2022-11-17T06:28:29.995Z,86.64
2022-11-17T06:30:58.897Z,87.72
2022-11-17T06:33:29.300Z,85.83
2022-11-17T06:36:00.157Z,86.02
2022-11-17T06:38:29.767Z,85.34
2022-11-17T06:40:57.949Z,85.41
2022-11-17T06:43:28.462Z,85.32
2022-11-17T06:45:57.595Z,85.54
2022-11-17T06:48:27.196Z,85.54
2022-11-17T06:50:55.956Z,85.72
2022-11-17T06:53:26.855Z,85.08
2022-11-17T06:56:02.624Z,85.61
2022-11-17T06:58:31.341Z,85.07
2022-11-17T07:01:03.734Z,84.75
2022-11-17T07:03:32.500Z,84.56
2022-11-17T07:06:02.964Z,84.55
2022-11-17T07:08:31.548Z,84.59
2022-11-17T07:11:09.429Z,84.63
2022-11-17T07:13:38.288Z,84.64
2022-11-17T07:16:09.386Z,84.56
2022-11-17T07:18:39.136Z,84.45
2022-11-17T07:21:10.243Z,84.42
2022-11-17T07:23:40.797Z,84.36
2022-11-17T07:26:10.906Z,84.26
2022-11-17T07:28:40.222Z,84.31
2022-11-17T07:31:11.243Z,84.26
2022-11-17T07:33:39.504Z,84.31
2022-11-17T07:36:13.141Z,84.33
2022-11-17T07:38:42.694Z,84.15
2022-11-17T07:41:14.408Z,84.15
2022-11-17T07:43:43.486Z,84.18
2022-11-17T07:46:15.978Z,84.06
2022-11-17T07:48:44.751Z,84.06
2022-11-17T07:51:14.035Z,84.04
2022-11-17T07:53:42.362Z,83.97
2022-11-17T07:56:13.427Z,83.83
2022-11-17T07:58:43.694Z,83.97
2022-11-17T08:01:17.814Z,83.90
2022-11-17T08:03:47.521Z,83.85
2022-11-17T08:06:16.947Z,83.77
2022-11-17T08:08:45.008Z,83.82
2022-11-17T08:11:15.306Z,83.76
2022-11-17T08:13:44.170Z,83.85
2022-11-17T08:16:13.026Z,83.59
2022-11-17T08:18:41.994Z,83.49
2022-11-17T08:21:19.179Z,83.55
2022-11-17T08:23:51.040Z,83.59
2022-11-17T08:26:25.423Z,83.56
2022-11-17T08:28:58.112Z,83.53
2022-11-17T08:31:26.868Z,83.50
2022-11-17T08:33:55.608Z,83.52
2022-11-17T08:36:24.267Z,83.57
2022-11-17T08:38:52.378Z,83.59
2022-11-17T08:41:22.319Z,83.45
2022-11-17T08:43:55.748Z,83.55
2022-11-17T08:46:25.819Z,83.57
2022-11-17T08:48:57.226Z,83.65
2022-11-17T08:51:27.213Z,83.51
2022-11-17T08:53:55.643Z,83.63
2022-11-17T08:56:25.776Z,83.49
2022-11-17T08:58:53.766Z,83.59
2022-11-17T09:01:22.298Z,83.50
2022-11-17T09:03:51.015Z,83.61
2022-11-17T09:06:20.120Z,83.53
2022-11-17T09:08:48.899Z,83.50
2022-11-17T09:11:17.603Z,83.64
2022-11-17T09:13:47.679Z,83.43
2022-11-17T09:16:16.939Z,83.37
2022-11-17T09:18:45.988Z,83.39
2022-11-17T09:21:16.566Z,83.54
2022-11-17T09:23:47.398Z,83.56
2022-11-17T09:26:18.012Z,83.50
2022-11-17T09:28:49.317Z,83.43
2022-11-17T09:31:19.010Z,83.51
2022-11-17T09:33:47.483Z,83.42
2022-11-17T09:36:17.228Z,83.45
2022-11-17T09:38:48.721Z,83.57
2022-11-17T09:41:26.617Z,83.43
2022-11-17T09:44:07.551Z,83.59
2022-11-17T09:46:49.477Z,83.62
2022-11-17T09:49:27.131Z,83.56
2022-11-17T09:52:00.585Z,83.61
2022-11-17T09:54:35.875Z,83.67
2022-11-17T09:57:04.994Z,83.71
2022-11-17T09:59:34.842Z,83.73
2022-11-17T10:02:04.305Z,83.63
2022-11-17T10:04:32.334Z,83.71
2022-11-17T10:07:00.472Z,83.62
2022-11-17T10:09:36.189Z,83.66
2022-11-17T10:12:23.892Z,83.71
2022-11-17T10:14:55.465Z,83.72
2022-11-17T10:17:25.930Z,83.74
2022-11-17T10:19:56.074Z,83.72
2022-11-17T10:22:38.318Z,83.81
2022-11-17T10:25:27.000Z,83.80
2022-11-17T10:27:56.774Z,83.73
2022-11-17T10:30:26.430Z,83.78
2022-11-17T10:32:58.020Z,83.91
2022-11-17T10:35:30.474Z,83.82
2022-11-17T10:38:02.393Z,83.83
2022-11-17T10:40:32.325Z,83.91
2022-11-17T10:43:17.850Z,84.03
2022-11-17T10:45:56.557Z,84.08
2022-11-17T10:48:28.358Z,84.14
2022-11-17T10:50:58.128Z,84.10
2022-11-17T10:53:29.869Z,84.10
2022-11-17T10:56:07.533Z,84.10
2022-11-17T10:59:00.998Z,84.10
2022-11-17T11:01:33.988Z,84.14
2022-11-17T11:04:07.510Z,84.04
2022-11-17T11:06:37.558Z,83.97
2022-11-17T11:09:16.220Z,84.04
2022-11-17T11:11:51.661Z,84.04
2022-11-17T11:14:24.962Z,83.93
2022-11-17T11:16:57.452Z,83.79
2022-11-17T11:19:25.542Z,83.86
2022-11-17T11:22:28.704Z,83.86
2022-11-17T11:25:07.160Z,83.67
2022-11-17T11:28:05.489Z,83.48
2022-11-17T11:30:40.952Z,83.25
2022-11-17T11:33:25.550Z,83.21
2022-11-17T11:36:03.504Z,83.14
2022-11-17T11:38:58.347Z,83.10
2022-11-17T11:41:41.464Z,83.16
2022-11-17T11:44:19.005Z,82.95
2022-11-17T11:46:51.357Z,82.91
2022-11-17T11:49:31.123Z,82.94
2022-11-17T11:51:59.340Z,82.95
2022-11-17T11:54:37.165Z,82.93
2022-11-17T11:57:13.140Z,83.33
2022-11-17T11:59:48.299Z,82.76
2022-11-17T12:02:26.795Z,83.74
2022-11-17T12:05:01.705Z,82.60
2022-11-17T12:07:39.905Z,82.65
2022-11-17T12:10:14.001Z,82.56
2022-11-17T12:12:49.235Z,82.53
2022-11-17T12:15:51.214Z,82.56
2022-11-17T12:18:37.919Z,82.38
2022-11-17T12:21:14.694Z,82.39
2022-11-17T12:24:07.444Z,82.37
2022-11-17T12:26:36.920Z,82.39
2022-11-17T12:29:26.162Z,82.32
2022-11-17T12:31:56.099Z,82.43
2022-11-17T12:34:35.334Z,82.54
2022-11-17T12:37:32.702Z,82.32
2022-11-17T12:40:04.873Z,82.30
2022-11-17T12:42:34.604Z,82.25
2022-11-17T12:45:07.887Z,82.15
2022-11-17T12:47:40.683Z,82.15
2022-11-17T12:50:37.651Z,82.10
2022-11-17T12:53:45.093Z,82.02
2022-11-17T12:56:41.536Z,82.05
2022-11-17T12:59:39.192Z,82.04
2022-11-17T13:02:21.625Z,82.07
2022-11-17T13:04:50.073Z,82.08
2022-11-17T13:07:21.417Z,82.02
2022-11-17T13:09:54.317Z,81.96
2022-11-17T13:12:25.143Z,82.01
2022-11-17T13:14:59.189Z,82.01
2022-11-17T13:17:34.396Z,81.87
2022-11-17T13:20:04.357Z,81.90
2022-11-17T13:22:42.317Z,81.91
2022-11-17T13:25:22.393Z,81.88
2022-11-17T13:27:57.186Z,81.87
2022-11-17T13:30:32.699Z,81.84
2022-11-17T13:33:02.689Z,81.77
2022-11-17T13:35:36.522Z,81.62
2022-11-17T13:38:21.303Z,81.68
2022-11-17T13:40:51.632Z,81.61
2022-11-17T13:43:23.744Z,81.61
2022-11-17T13:46:04.040Z,81.54
2022-11-17T13:48:33.145Z,81.60
2022-11-17T13:51:25.641Z,81.61
2022-11-17T13:53:59.619Z,81.68
2022-11-17T13:56:34.934Z,81.81
2022-11-17T13:59:13.163Z,81.83
2022-11-17T14:01:44.291Z,81.86
2022-11-17T14:04:19.766Z,81.89
2022-11-17T14:06:57.300Z,81.97
2022-11-17T14:09:27.616Z,81.91
2022-11-17T14:11:57.668Z,81.94
2022-11-17T14:14:33.211Z,82.16
2022-11-17T14:17:13.763Z,82.58
2022-11-17T14:19:44.794Z,82.95
2022-11-17T14:22:31.382Z,83.34
2022-11-17T14:25:02.431Z,83.89
2022-11-17T14:27:39.024Z,84.35
2022-11-17T14:30:16.099Z,85.01
2022-11-17T14:32:48.069Z,85.48
2022-11-17T14:35:20.135Z,85.83
2022-11-17T14:37:50.974Z,86.16
2022-11-17T14:40:19.107Z,86.59
2022-11-17T14:42:48.544Z,87.12
2022-11-17T14:45:22.416Z,87.47
2022-11-17T14:47:54.791Z,87.93
2022-11-17T14:50:26.060Z,87.97
2022-11-17T14:52:54.602Z,88.21
2022-11-17T14:55:24.989Z,88.41
2022-11-17T14:57:54.059Z,88.13
2022-11-17T15:00:24.773Z,88.14
2022-11-17T15:02:53.461Z,88.27
2022-11-17T15:05:21.746Z,88.42
2022-11-17T15:07:52.754Z,88.34
2022-11-17T15:10:22.166Z,88.52
2022-11-17T15:12:52.707Z,89.00
2022-11-17T15:15:21.152Z,88.92
2022-11-17T15:17:52.238Z,89.03
2022-11-17T15:20:21.947Z,89.08
2022-11-17T15:22:51.338Z,89.29
2022-11-17T15:25:23.059Z,89.53
2022-11-17T15:27:53.739Z,89.48
2022-11-17T15:30:23.031Z,89.87
2022-11-17T15:32:55.700Z,89.92
2022-11-17T15:35:24.695Z,90.02
2022-11-17T15:37:55.665Z,90.00
2022-11-17T15:40:24.623Z,89.95
2022-11-17T15:42:59.133Z,90.13
2022-11-17T15:45:29.357Z,90.27
2022-11-17T15:47:59.602Z,90.13
2022-11-17T15:50:28.325Z,90.22
2022-11-17T15:53:04.190Z,90.31
2022-11-17T15:55:35.733Z,90.27
2022-11-17T15:58:07.244Z,90.45
2022-11-17T16:00:36.377Z,90.57
2022-11-17T16:03:07.217Z,90.66
2022-11-17T16:05:35.401Z,90.58
2022-11-17T16:08:05.350Z,90.78
2022-11-17T16:10:34.851Z,90.94
2022-11-17T16:13:02.907Z,90.97
2022-11-17T16:15:30.965Z,90.73
2022-11-17T16:17:58.906Z,90.66
2022-11-17T16:20:28.456Z,90.78
2022-11-17T16:22:59.340Z,90.86
2022-11-17T16:25:27.340Z,90.80
2022-11-17T16:27:55.566Z,90.98
2022-11-17T16:30:31.371Z,91.11
2022-11-17T16:33:02.882Z,91.35
2022-11-17T16:35:36.155Z,91.35
2022-11-17T16:38:06.748Z,91.55
2022-11-17T16:40:46.149Z,91.53
2022-11-17T16:43:14.937Z,91.74
2022-11-17T16:45:45.768Z,91.80
2022-11-17T16:48:14.165Z,91.72
2022-11-17T16:50:46.793Z,91.71
2022-11-17T16:53:16.362Z,91.77
2022-11-17T16:55:46.911Z,91.79
2022-11-17T16:58:17.791Z,91.86
2022-11-17T17:00:46.963Z,92.06
2022-11-17T17:03:16.122Z,92.02
2022-11-17T17:05:47.683Z,92.04
2022-11-17T17:08:16.436Z,92.02
2022-11-17T17:10:48.099Z,91.96
2022-11-17T17:13:17.698Z,92.00
2022-11-17T17:15:45.976Z,91.88
2022-11-17T17:18:16.133Z,92.11
2022-11-17T17:20:51.859Z,92.36
2022-11-17T17:23:20.467Z,92.44
2022-11-17T17:25:49.781Z,92.44
2022-11-17T17:28:19.838Z,92.42
2022-11-17T17:30:54.494Z,92.50
2022-11-17T17:33:23.436Z,92.68
2022-11-17T17:35:52.699Z,92.59
2022-11-17T17:38:21.027Z,92.60
2022-11-17T17:40:49.439Z,92.65
2022-11-17T17:43:20.229Z,92.64
2022-11-17T17:45:48.194Z,92.50
2022-11-17T17:48:16.582Z,92.61
2022-11-17T17:50:48.638Z,92.63
2022-11-17T17:53:18.247Z,92.66
2022-11-17T17:55:46.814Z,92.69
2022-11-17T17:58:15.894Z,92.82
2022-11-17T18:00:44.627Z,92.86
2022-11-17T18:03:13.031Z,92.87
2022-11-17T18:05:42.638Z,92.88
2022-11-17T18:08:10.949Z,92.85
2022-11-17T18:10:40.976Z,92.91
2022-11-17T18:13:13.488Z,92.99
2022-11-17T18:15:42.444Z,93.05
2022-11-17T18:18:12.636Z,93.16
2022-11-17T18:20:43.746Z,93.14
2022-11-17T18:23:11.839Z,93.10
2022-11-17T18:25:42.098Z,93.12
2022-11-17T18:28:12.777Z,93.21
2022-11-17T18:30:41.997Z,93.22
2022-11-17T18:33:10.276Z,93.25
2022-11-17T18:35:38.596Z,93.38
2022-11-17T18:38:07.286Z,93.43
2022-11-17T18:40:37.155Z,93.45
2022-11-17T18:43:06.490Z,93.49
2022-11-17T18:45:38.988Z,93.46
2022-11-17T18:48:07.654Z,93.44
2022-11-17T18:50:57.930Z,93.50
2022-11-17T18:53:28.363Z,93.53
2022-11-17T18:56:03.261Z,93.58
2022-11-17T18:58:38.591Z,93.57
2022-11-17T19:01:15.193Z,93.60
2022-11-17T19:03:46.690Z,93.64
2022-11-17T19:06:17.361Z,93.61
2022-11-17T19:08:48.284Z,93.59
2022-11-17T19:11:22.838Z,93.71
2022-11-17T19:13:56.273Z,93.73
2022-11-17T19:16:27.033Z,93.72
2022-11-17T19:18:58.194Z,93.78
2022-11-17T19:21:27.706Z,93.84
2022-11-17T19:23:58.168Z,93.89
2022-11-17T19:26:31.308Z,93.88
2022-11-17T19:29:03.362Z,93.86
2022-11-17T19:31:33.898Z,93.89
2022-11-17T19:34:02.145Z,93.85
2022-11-17T19:36:32.019Z,93.91
2022-11-17T19:39:02.590Z,93.99
2022-11-17T19:41:32.365Z,93.81
2022-11-17T19:44:05.469Z,93.83
2022-11-17T19:46:36.686Z,93.82
2022-11-17T19:49:06.341Z,93.80
2022-11-17T19:51:38.424Z,93.91
2022-11-17T19:54:08.150Z,93.96
2022-11-17T19:56:39.689Z,94.00
2022-11-17T19:59:15.278Z,94.09
2022-11-17T20:01:46.509Z,94.12
2022-11-17T20:04:15.900Z,94.14
2022-11-17T20:06:45.536Z,94.15
2022-11-17T20:09:17.798Z,94.12
2022-11-17T20:11:49.445Z,94.14
2022-11-17T20:14:20.489Z,94.16
2022-11-17T20:16:50.508Z,94.19
2022-11-17T20:19:20.136Z,94.21
2022-11-17T20:21:57.701Z,94.24
2022-11-17T20:24:27.020Z,94.22
2022-11-17T20:26:56.523Z,94.25
2022-11-17T20:29:26.635Z,94.20
2022-11-17T20:32:02.572Z,94.24
2022-11-17T20:34:30.794Z,94.29
2022-11-17T20:36:59.097Z,94.27
2022-11-17T20:39:27.750Z,94.35
2022-11-17T20:41:56.670Z,94.42
2022-11-17T20:44:27.856Z,94.36
2022-11-17T20:46:56.797Z,94.30
2022-11-17T20:49:25.541Z,94.21
2022-11-17T20:51:56.654Z,94.11
2022-11-17T20:54:24.709Z,94.17
2022-11-17T20:56:53.544Z,94.09
2022-11-17T20:59:22.355Z,94.19
2022-11-17T21:01:54.736Z,94.17
2022-11-17T21:04:23.507Z,94.20
2022-11-17T21:06:54.087Z,94.22
2022-11-17T21:09:22.987Z,94.15
2022-11-17T21:12:00.112Z,94.20
2022-11-17T21:14:35.252Z,94.22
2022-11-17T21:17:24.628Z,94.20
2022-11-17T21:19:54.820Z,94.26
2022-11-17T21:22:23.074Z,94.29
2022-11-17T21:24:56.276Z,94.31
2022-11-17T21:27:26.726Z,94.32
2022-11-17T21:29:59.167Z,94.37
2022-11-17T21:32:29.089Z,94.36
2022-11-17T21:34:59.405Z,94.43
2022-11-17T21:37:28.467Z,94.30
2022-11-17T21:39:59.245Z,94.35
2022-11-17T21:42:27.851Z,94.28
2022-11-17T21:44:56.938Z,94.21
2022-11-17T21:47:30.985Z,94.24
2022-11-17T21:50:02.027Z,94.19
2022-11-17T21:52:30.462Z,94.10
2022-11-17T21:54:58.736Z,94.03
2022-11-17T21:57:27.261Z,93.96
2022-11-17T21:59:56.194Z,93.91
2022-11-17T22:02:25.063Z,93.98
2022-11-17T22:04:56.542Z,93.96
2022-11-17T22:07:31.208Z,93.87
2022-11-17T22:09:59.669Z,93.84
2022-11-17T22:12:30.073Z,93.69
2022-11-17T22:15:00.046Z,93.56
2022-11-17T22:17:28.253Z,93.48
2022-11-17T22:20:01.087Z,93.49
2022-11-17T22:22:29.627Z,93.54
2022-11-17T22:25:11.446Z,93.48
2022-11-17T22:27:46.300Z,93.34
2022-11-17T22:30:17.150Z,93.31
2022-11-17T22:32:46.620Z,93.30
2022-11-17T22:35:17.336Z,93.09
2022-11-17T22:37:46.509Z,92.94
2022-11-17T22:40:17.570Z,93.06
2022-11-17T22:42:46.224Z,92.99
2022-11-17T22:45:14.784Z,92.82
2022-11-17T22:47:46.248Z,92.86
2022-11-17T22:50:14.574Z,92.83
2022-11-17T22:52:44.087Z,92.77
2022-11-17T22:55:12.819Z,92.74
2022-11-17T22:57:41.158Z,92.79
2022-11-17T23:00:14.672Z,92.76
2022-11-17T23:02:42.829Z,92.77
2022-11-17T23:05:11.218Z,92.56
2022-11-17T23:07:44.876Z,92.60
2022-11-17T23:10:15.497Z,92.54
2022-11-17T23:12:43.600Z,92.50
2022-11-17T23:15:13.922Z,92.46
2022-11-17T23:17:46.161Z,92.35
2022-11-17T23:20:15.842Z,92.41
2022-11-17T23:22:44.443Z,92.24
2022-11-17T23:25:15.120Z,92.13
2022-11-17T23:27:43.592Z,92.15
2022-11-17T23:30:13.883Z,92.09
2022-11-17T23:32:42.331Z,92.12
2022-11-17T23:35:11.513Z,92.13
2022-11-17T23:37:43.194Z,92.13
2022-11-17T23:40:16.453Z,92.04
2022-11-17T23:42:45.953Z,92.06
2022-11-17T23:45:14.310Z,91.89
2022-11-17T23:47:44.183Z,91.96
2022-11-17T23:50:12.314Z,91.96
2022-11-17T23:52:40.870Z,91.83
2022-11-17T23:55:09.411Z,91.96
2022-11-17T23:57:38.633Z,91.87
